Albertson, North Carolina
Current Conditions -  °F | °C
As of 11:55 AM on Sunday 23 Nov 2014 (Local Time) from KDPL Reporting Station
Light Rain Light Rain  
Wind Chill: 53°   Ceiling: 2500
Heat Index: 53°   Visibility: 5mi
Dew Point: 52°   Wind: 0mph
Humidity: 95%   Direction: NA
Pressure: 30.17"   Gusts: NA
Location:  35.11°N, 77.82°W
Report Text: KDPL 231655Z AUTO 00000KT 5SM -RA BKN025 OVC032 12/11 A3017 RMK AO2 P0003 T01170109
Loading
Personal Weather Stations






























Interactive Weather Map New forecast layout! Learn more

10-Day Weather Forecast

Advertisements
Track Severe Weather on mobile